Time;durP1;ratioP1;P1;durP2;ratioP2;P2;SDS_P1;SDS_P2;PMS_P1;PMS_P2;Temp;Humidity;BMP_temperature;BMP_pressure;BME280_temperature;BME280_humidity;BME280_pressure;Samples;Min_cycle;Max_cycle;Signal;HPM_P1;HPM_P2
2023/04/15 00:03:10;;;;;;;8.93;4.50;;;4.80;99.90;;;;;;7292799;32;20128;-55
2023/04/15 00:07:13;;;;;;;10.70;4.45;;;4.80;99.90;;;;;;7297632;32;20209;-55
2023/04/15 00:11:16;;;;;;;8.63;4.80;;;4.80;99.90;;;;;;7297271;32;20237;-55
2023/04/15 00:15:18;;;;;;;10.50;4.62;;;4.80;99.90;;;;;;7298632;32;20145;-55
2023/04/15 00:19:19;;;;;;;12.07;4.60;;;4.70;99.90;;;;;;7294558;32;20245;-55
2023/04/15 00:23:21;;;;;;;11.00;4.40;;;4.70;99.90;;;;;;7296824;32;20748;-55
2023/04/15 00:27:23;;;;;;;9.18;4.78;;;4.70;99.90;;;;;;7295684;32;20249;-56
2023/04/15 00:31:25;;;;;;;11.02;4.47;;;4.70;99.90;;;;;;7294119;32;20237;-55
2023/04/15 00:35:27;;;;;;;8.18;4.12;;;4.60;99.90;;;;;;7296622;32;21393;-55
2023/04/15 00:39:28;;;;;;;11.10;4.68;;;4.60;99.90;;;;;;7297139;32;20233;-55
2023/04/15 00:43:30;;;;;;;8.18;4.32;;;4.70;99.90;;;;;;7292993;32;20606;-56
2023/04/15 00:47:34;;;;;;;9.52;4.28;;;4.70;99.90;;;;;;7293839;32;20548;-56
2023/04/15 00:51:36;;;;;;;6.75;4.00;;;4.70;99.90;;;;;;7297189;32;20249;-55
2023/04/15 00:55:38;;;;;;;7.93;4.00;;;4.70;99.90;;;;;;7299505;32;20249;-55
2023/04/15 00:59:40;;;;;;;9.85;4.45;;;4.50;99.90;;;;;;7296144;32;20252;-56
2023/04/15 01:03:42;;;;;;;9.10;3.75;;;4.60;99.90;;;;;;7296940;32;20529;-55
2023/04/15 01:07:43;;;;;;;10.32;4.22;;;4.60;99.90;;;;;;7289465;32;20521;-55
2023/04/15 01:11:46;;;;;;;5.85;3.95;;;4.70;99.90;;;;;;7291825;32;20393;-55
2023/04/15 01:15:47;;;;;;;8.68;3.83;;;4.60;99.90;;;;;;7289176;32;20107;-55
2023/04/15 01:19:51;;;;;;;8.40;4.00;;;4.60;99.90;;;;;;7288130;32;20119;-55
2023/04/15 01:23:55;;;;;;;10.10;4.07;;;4.50;99.90;;;;;;7300165;32;20127;-55
2023/04/15 01:27:58;;;;;;;10.18;4.03;;;4.40;99.90;;;;;;7290335;32;20108;-55
2023/04/15 01:32:00;;;;;;;5.45;3.30;;;4.30;99.90;;;;;;7290727;32;20502;-55
2023/04/15 01:36:02;;;;;;;8.75;4.05;;;4.10;99.90;;;;;;7296725;32;20191;-55
2023/04/15 01:40:05;;;;;;;7.87;4.35;;;4.00;99.90;;;;;;7294119;32;20138;-55
2023/04/15 01:44:06;;;;;;;6.12;4.20;;;4.00;99.90;;;;;;7291957;32;20144;-55
2023/04/15 01:48:08;;;;;;;11.93;4.30;;;4.00;99.90;;;;;;7291417;32;20887;-56
2023/04/15 01:52:10;;;;;;;7.47;4.18;;;4.00;99.90;;;;;;7288492;32;20276;-55
2023/04/15 01:56:12;;;;;;;7.45;4.10;;;3.90;99.90;;;;;;7300983;32;20112;-55
2023/04/15 02:00:17;;;;;;;8.65;4.10;;;3.90;99.90;;;;;;7304334;32;20147;-55
2023/04/15 02:04:19;;;;;;;8.70;4.10;;;3.80;99.90;;;;;;7302852;32;20229;-55
2023/04/15 02:08:20;;;;;;;11.82;4.30;;;3.80;99.90;;;;;;7304805;32;20183;-55
2023/04/15 02:12:22;;;;;;;6.90;3.75;;;3.70;99.90;;;;;;7306288;32;20179;-55
2023/04/15 02:16:23;;;;;;;6.62;3.55;;;3.60;99.90;;;;;;7298638;32;20211;-55
2023/04/15 02:20:25;;;;;;;9.48;4.37;;;3.60;99.90;;;;;;7309920;32;20601;-55
2023/04/15 02:24:28;;;;;;;9.95;4.12;;;3.60;99.90;;;;;;7311594;32;20159;-55
2023/04/15 02:28:30;;;;;;;9.63;4.47;;;3.50;99.90;;;;;;7309687;32;20174;-55
2023/04/15 02:32:32;;;;;;;8.25;4.30;;;3.50;99.90;;;;;;7307207;32;20132;-55
2023/04/15 02:36:34;;;;;;;9.85;4.57;;;3.50;99.90;;;;;;7296172;32;20284;-55
2023/04/15 02:40:36;;;;;;;8.63;4.47;;;3.40;99.90;;;;;;7307701;32;20224;-55
2023/04/15 02:44:37;;;;;;;7.20;4.80;;;3.40;99.90;;;;;;7310975;32;20281;-55
2023/04/15 02:48:39;;;;;;;9.43;4.30;;;3.40;99.90;;;;;;7298929;32;20884;-55
2023/04/15 02:52:42;;;;;;;6.68;4.85;;;3.20;99.90;;;;;;7309179;32;20376;-55
2023/04/15 02:56:43;;;;;;;9.40;4.82;;;3.20;99.90;;;;;;7306656;32;20150;-55
2023/04/15 03:00:45;;;;;;;7.93;4.85;;;3.20;99.90;;;;;;7301288;32;20171;-55
2023/04/15 03:04:47;;;;;;;8.10;5.37;;;3.20;99.90;;;;;;7309860;32;20147;-55
2023/04/15 03:08:49;;;;;;;9.15;5.20;;;3.30;99.90;;;;;;7310335;32;20291;-55
2023/04/15 03:12:51;;;;;;;9.52;5.32;;;3.10;99.90;;;;;;7304214;32;20144;-55
2023/04/15 03:16:52;;;;;;;6.93;4.30;;;3.10;99.90;;;;;;7310672;32;20161;-55
2023/04/15 03:20:54;;;;;;;7.00;4.65;;;3.10;99.90;;;;;;7311730;32;20644;-55
2023/04/15 03:24:56;;;;;;;8.85;4.97;;;3.10;99.90;;;;;;7302399;32;20256;-55
2023/04/15 03:28:58;;;;;;;6.80;4.32;;;3.00;99.90;;;;;;7312628;32;20134;-55
2023/04/15 03:33:00;;;;;;;9.65;5.07;;;3.10;99.90;;;;;;7305739;32;20135;-57
2023/04/15 03:37:01;;;;;;;10.40;5.35;;;3.10;99.90;;;;;;7310326;32;20222;-55
2023/04/15 03:41:04;;;;;;;8.60;4.97;;;3.00;99.90;;;;;;7305801;32;20229;-54
2023/04/15 03:45:06;;;;;;;8.05;4.85;;;3.00;99.90;;;;;;7306764;32;20644;-54
2023/04/15 03:49:08;;;;;;;8.50;5.15;;;2.90;99.90;;;;;;7306762;32;20135;-54
2023/04/15 03:53:09;;;;;;;7.40;4.95;;;2.90;99.90;;;;;;7309882;32;20214;-54
2023/04/15 03:57:11;;;;;;;7.35;4.82;;;2.90;99.90;;;;;;7308925;32;20115;-54
2023/04/15 04:01:13;;;;;;;11.65;5.57;;;2.90;99.90;;;;;;7302305;32;20100;-54
2023/04/15 04:05:15;;;;;;;13.20;7.53;;;2.90;99.90;;;;;;7307428;32;20226;-54
2023/04/15 04:09:16;;;;;;;12.13;8.73;;;3.40;99.90;;;;;;7307632;32;20112;-54
2023/04/15 04:13:18;;;;;;;12.70;8.43;;;4.00;99.90;;;;;;7307655;32;20635;-54
2023/04/15 04:17:19;;;;;;;14.13;8.85;;;4.30;99.90;;;;;;7304957;32;20207;-55
2023/04/15 04:21:21;;;;;;;11.93;8.20;;;4.60;99.90;;;;;;7312721;32;20164;-54
2023/04/15 04:25:23;;;;;;;13.02;8.07;;;4.90;99.90;;;;;;7302636;32;20141;-54
2023/04/15 04:29:25;;;;;;;11.43;7.47;;;5.10;99.90;;;;;;7307142;32;20107;-54
2023/04/15 04:33:27;;;;;;;9.77;6.28;;;5.10;99.90;;;;;;7302819;32;20961;-55
2023/04/15 04:37:29;;;;;;;7.75;4.35;;;5.00;99.90;;;;;;7306993;32;20524;-54
2023/04/15 04:41:31;;;;;;;7.03;5.35;;;4.50;99.90;;;;;;7303740;32;20112;-54
2023/04/15 04:45:32;;;;;;;8.65;5.78;;;4.20;99.90;;;;;;7304061;32;20210;-55
2023/04/15 04:49:34;;;;;;;9.45;4.95;;;4.30;99.90;;;;;;7307918;32;20134;-54
2023/04/15 04:53:36;;;;;;;8.63;5.72;;;4.20;99.90;;;;;;7299586;32;20238;-55
2023/04/15 04:57:38;;;;;;;11.32;7.05;;;4.10;99.90;;;;;;7302841;32;20631;-54
2023/04/15 05:01:40;;;;;;;13.50;9.27;;;4.20;99.90;;;;;;7313060;32;20236;-54
2023/04/15 05:05:42;;;;;;;17.00;10.23;;;4.40;99.90;;;;;;7304222;32;20120;-54
2023/04/15 05:09:44;;;;;;;18.23;11.15;;;4.70;99.90;;;;;;7297083;32;20136;-54
2023/04/15 05:13:46;;;;;;;15.65;10.45;;;4.80;99.90;;;;;;7308850;32;20149;-54
2023/04/15 05:17:47;;;;;;;17.45;11.02;;;4.90;99.90;;;;;;7307143;32;20173;-54
2023/04/15 05:21:49;;;;;;;16.37;10.90;;;5.00;99.90;;;;;;7298137;32;20222;-55
2023/04/15 05:25:51;;;;;;;18.33;11.50;;;5.10;99.90;;;;;;7300075;32;20270;-54
2023/04/15 05:29:53;;;;;;;14.30;11.30;;;5.20;99.90;;;;;;7305144;32;20103;-55
2023/04/15 05:33:54;;;;;;;17.08;11.98;;;5.10;99.90;;;;;;7307603;32;20297;-55
2023/04/15 05:37:56;;;;;;;18.08;11.60;;;5.20;99.90;;;;;;7297133;32;20699;-55
2023/04/15 05:41:58;;;;;;;18.37;11.60;;;5.20;99.90;;;;;;7301883;32;20306;-54
2023/04/15 05:46:00;;;;;;;20.70;12.05;;;5.40;99.90;;;;;;7298934;32;20336;-55
2023/04/15 05:50:02;;;;;;;16.85;12.25;;;5.50;99.90;;;;;;7296991;32;20149;-56
2023/04/15 05:54:04;;;;;;;17.67;12.25;;;5.70;99.90;;;;;;7299111;32;20104;-55
2023/04/15 05:58:06;;;;;;;17.37;11.35;;;5.80;99.90;;;;;;7306792;32;20122;-54
2023/04/15 06:02:09;;;;;;;16.60;12.25;;;6.00;99.90;;;;;;7304240;32;20721;-55
2023/04/15 06:06:11;;;;;;;17.23;12.50;;;6.20;99.90;;;;;;7305408;32;20345;-54
2023/04/15 06:10:12;;;;;;;12.35;10.57;;;6.40;99.90;;;;;;7304673;32;20107;-55
2023/04/15 06:14:14;;;;;;;16.08;11.55;;;6.70;99.90;;;;;;7305287;32;20134;-55
2023/04/15 06:18:16;;;;;;;15.80;11.38;;;6.70;99.90;;;;;;7301489;32;20179;-55
2023/04/15 06:22:17;;;;;;;13.13;10.27;;;6.80;99.90;;;;;;7301381;32;20704;-56
2023/04/15 06:26:19;;;;;;;15.88;12.02;;;7.00;99.90;;;;;;7306464;32;20227;-55
2023/04/15 06:30:21;;;;;;;14.63;11.43;;;7.10;99.90;;;;;;7307991;32;20206;-55
2023/04/15 06:34:25;;;;;;;15.98;11.40;;;7.10;99.90;;;;;;7296985;32;20112;-55
2023/04/15 06:38:26;;;;;;;15.35;11.45;;;7.40;99.90;;;;;;7302483;32;20131;-56
2023/04/15 06:42:28;;;;;;;14.93;11.05;;;7.60;99.90;;;;;;7304846;32;20119;-57
2023/04/15 06:46:30;;;;;;;15.20;11.80;;;7.80;99.90;;;;;;7306394;32;20538;-57
2023/04/15 06:50:32;;;;;;;16.80;11.35;;;8.10;99.90;;;;;;7304648;32;20523;-57
2023/04/15 06:54:34;;;;;;;14.85;10.43;;;8.30;99.90;;;;;;7305945;32;20153;-57
2023/04/15 06:58:36;;;;;;;16.17;12.32;;;8.60;99.90;;;;;;7306864;32;20116;-56
2023/04/15 07:02:37;;;;;;;15.25;10.65;;;8.80;99.90;;;;;;7302874;32;20123;-57
2023/04/15 07:06:40;;;;;;;13.00;10.30;;;9.10;99.90;;;;;;7296409;32;20433;-58
2023/04/15 07:10:42;;;;;;;14.10;10.82;;;9.20;99.90;;;;;;7293095;32;20787;-58
2023/04/15 07:14:44;;;;;;;11.98;9.23;;;9.20;99.90;;;;;;7297973;32;20262;-58
2023/04/15 07:18:46;;;;;;;11.40;9.00;;;9.30;99.90;;;;;;7300781;32;20184;-58
2023/04/15 07:22:47;;;;;;;12.65;8.70;;;9.50;99.90;;;;;;7299175;32;20180;-57
2023/04/15 07:26:49;;;;;;;13.13;8.65;;;9.40;99.90;;;;;;7296903;32;20126;-58
2023/04/15 07:30:51;;;;;;;12.98;9.32;;;9.50;99.90;;;;;;7297460;32;20271;-58
2023/04/15 07:34:52;;;;;;;10.20;8.55;;;9.70;99.90;;;;;;7297764;32;20238;-56
2023/04/15 07:38:54;;;;;;;12.48;8.68;;;10.00;99.90;;;;;;7301190;32;20787;-57
2023/04/15 07:42:57;;;;;;;9.77;8.05;;;10.00;99.90;;;;;;7295201;32;20138;-56
2023/04/15 07:46:59;;;;;;;10.20;7.37;;;10.20;99.90;;;;;;7294012;32;20289;-57
2023/04/15 07:51:02;;;;;;;9.40;7.30;;;10.00;99.90;;;;;;7298178;32;20266;-58
2023/04/15 07:55:07;;;;;;;9.13;7.95;;;9.80;99.90;;;;;;7297985;32;20119;-57
2023/04/15 07:59:09;;;;;;;11.45;8.25;;;9.50;99.90;;;;;;7297035;32;20153;-58
2023/04/15 08:03:11;;;;;;;12.25;8.32;;;9.40;99.90;;;;;;7294680;32;20618;-58
2023/04/15 08:07:13;;;;;;;12.25;8.52;;;9.40;99.90;;;;;;7296082;32;20244;-57
2023/04/15 08:11:15;;;;;;;12.13;8.20;;;9.60;99.90;;;;;;7303594;32;20126;-57
2023/04/15 08:15:17;;;;;;;10.00;7.55;;;9.70;99.90;;;;;;7312404;32;20214;-57
2023/04/15 08:19:19;;;;;;;9.70;6.50;;;10.00;99.90;;;;;;7312303;32;20528;-58
2023/04/15 08:23:21;;;;;;;9.82;7.03;;;10.30;99.90;;;;;;7315571;32;20215;-58
2023/04/15 08:27:23;;;;;;;8.15;5.95;;;10.50;99.90;;;;;;7307625;32;20194;-57
2023/04/15 08:31:28;;;;;;;7.20;5.25;;;10.80;99.90;;;;;;7317830;32;20217;-62
2023/04/15 08:35:30;;;;;;;6.65;4.90;;;11.10;99.90;;;;;;7312253;32;20805;-62
2023/04/15 08:39:32;;;;;;;5.87;4.32;;;11.10;99.90;;;;;;7310761;32;20163;-63
2023/04/15 08:43:35;;;;;;;6.43;4.72;;;11.30;99.90;;;;;;7316585;32;20175;-62
2023/04/15 08:47:39;;;;;;;5.50;4.47;;;11.40;99.90;;;;;;7304465;32;20218;-60
2023/04/15 08:51:41;;;;;;;6.62;4.80;;;11.50;99.90;;;;;;7304131;32;20195;-59
2023/04/15 08:55:44;;;;;;;8.48;6.25;;;11.30;99.90;;;;;;7308387;32;20191;-58
2023/04/15 08:59:47;;;;;;;8.50;5.70;;;11.40;99.90;;;;;;7292375;32;20143;-57
2023/04/15 09:03:49;;;;;;;7.00;4.80;;;11.40;99.90;;;;;;7293696;32;20137;-58
2023/04/15 09:07:51;;;;;;;6.55;4.90;;;11.70;99.90;;;;;;7302359;32;20236;-58
2023/04/15 09:11:53;;;;;;;8.18;4.07;;;12.00;99.90;;;;;;7308921;32;20872;-56
2023/04/15 09:15:56;;;;;;;5.43;4.00;;;12.70;99.90;;;;;;7300679;32;20116;-57
2023/04/15 09:20:08;;;;;;;5.70;3.58;;;13.30;99.90;;;;;;7301147;32;20135;-57
2023/04/15 09:24:10;;;;;;;3.83;3.12;;;12.50;99.90;;;;;;7308709;32;20805;-56
2023/04/15 09:28:11;;;;;;;6.10;3.87;;;13.00;99.90;;;;;;7297047;32;20502;-56
2023/04/15 09:32:14;;;;;;;3.53;2.97;;;13.40;99.90;;;;;;7297260;32;20249;-56
2023/04/15 09:36:16;;;;;;;4.32;2.85;;;13.60;99.90;;;;;;7317118;32;20797;-56
2023/04/15 09:40:34;;;;;;;3.75;3.10;;;13.20;99.90;;;;;;7297225;32;20537;-56
2023/04/15 09:44:36;;;;;;;3.78;2.55;;;13.40;99.90;;;;;;7299127;32;20139;-56
2023/04/15 09:48:38;;;;;;;3.62;2.70;;;13.30;99.90;;;;;;7302132;32;20130;-56
2023/04/15 09:52:43;;;;;;;4.43;3.58;;;13.60;99.90;;;;;;7298827;32;20149;-55
2023/04/15 09:56:45;;;;;;;4.72;3.87;;;14.00;99.90;;;;;;7301832;32;20131;-56
2023/04/15 10:00:49;;;;;;;5.10;4.18;;;14.60;99.90;;;;;;7304643;32;20186;-55
2023/04/15 10:04:52;;;;;;;4.78;3.83;;;13.80;99.90;;;;;;7300530;32;20108;-56
2023/04/15 10:08:55;;;;;;;4.65;4.05;;;14.40;99.90;;;;;;7295239;32;20226;-58
2023/04/15 10:12:57;;;;;;;6.90;5.43;;;15.10;99.90;;;;;;7296648;32;20146;-57
2023/04/15 10:17:02;;;;;;;5.65;5.15;;;14.20;99.90;;;;;;7307592;32;20139;-55
2023/04/15 10:21:05;;;;;;;5.68;5.18;;;13.40;99.90;;;;;;7302418;32;20157;-56
2023/04/15 10:25:08;;;;;;;6.07;5.37;;;13.50;99.90;;;;;;7306455;32;20159;-56
2023/04/15 10:29:10;;;;;;;6.90;6.20;;;13.10;99.90;;;;;;7305675;32;20225;-56
2023/04/15 10:33:13;;;;;;;6.15;5.50;;;12.70;99.90;;;;;;7315019;32;20171;-56
2023/04/15 10:37:21;;;;;;;6.10;5.50;;;12.40;99.90;;;;;;7302056;32;20213;-56
2023/04/15 10:41:25;;;;;;;4.97;4.47;;;12.10;99.90;;;;;;7298722;32;20248;-56
2023/04/15 10:45:35;;;;;;;5.50;4.35;;;12.40;99.90;;;;;;7305483;32;20206;-56
2023/04/15 10:49:49;;;;;;;6.07;3.78;;;12.40;99.90;;;;;;7313623;32;20108;-57
2023/04/15 10:53:55;;;;;;;4.53;4.10;;;12.40;99.90;;;;;;7306292;32;20138;-56
2023/04/15 10:58:01;;;;;;;6.18;5.37;;;12.30;99.90;;;;;;7309819;32;20161;-56
2023/04/15 11:02:04;;;;;;;7.50;5.65;;;11.90;99.90;;;;;;7307744;32;20397;-56
2023/04/15 11:06:06;;;;;;;5.65;4.40;;;11.80;99.90;;;;;;7309396;32;20107;-56
2023/04/15 11:10:17;;;;;;;4.43;3.67;;;12.20;99.90;;;;;;7305406;32;20894;-56
2023/04/15 11:14:19;;;;;;;5.72;3.80;;;12.10;99.90;;;;;;7298370;32;20215;-57
2023/04/15 11:18:27;;;;;;;4.80;3.08;;;12.20;99.90;;;;;;7308009;32;20107;-56
2023/04/15 11:22:29;;;;;;;3.40;2.08;;;12.70;99.90;;;;;;7299363;32;20275;-57
2023/04/15 11:26:31;;;;;;;2.80;2.20;;;13.20;99.90;;;;;;7304944;32;20191;-57
2023/04/15 11:30:36;;;;;;;2.90;2.58;;;13.20;99.90;;;;;;7297623;32;20229;-56
2023/04/15 11:34:37;;;;;;;4.32;3.45;;;12.90;99.90;;;;;;7300041;32;21326;-56
2023/04/15 11:38:43;;;;;;;3.80;3.20;;;12.50;99.90;;;;;;7314558;32;20150;-56
2023/04/15 11:42:46;;;;;;;3.95;3.15;;;12.10;99.90;;;;;;7301130;32;20210;-55
2023/04/15 11:46:50;;;;;;;4.12;3.28;;;11.80;99.90;;;;;;7298276;32;20191;-56
2023/04/15 11:50:57;;;;;;;4.18;2.80;;;11.90;99.90;;;;;;7298128;32;20202;-56
2023/04/15 11:55:03;;;;;;;3.42;2.80;;;12.10;99.90;;;;;;7300865;32;20137;-57
2023/04/15 11:59:04;;;;;;;3.40;3.10;;;12.10;99.90;;;;;;7297320;32;20139;-56
2023/04/15 12:03:25;;;;;;;3.45;2.58;;;11.90;99.90;;;;;;7298963;32;20235;-57
2023/04/15 12:07:27;;;;;;;5.72;2.55;;;11.70;99.90;;;;;;7309537;32;20537;-56
2023/04/15 12:11:39;;;;;;;3.50;2.15;;;11.70;99.90;;;;;;7302947;32;20582;-57
2023/04/15 12:15:41;;;;;;;4.60;3.05;;;11.80;99.90;;;;;;7312080;32;20132;-56
2023/04/15 12:19:44;;;;;;;4.07;3.28;;;11.40;99.90;;;;;;7301364;32;20436;-56
2023/04/15 12:23:49;;;;;;;4.07;3.30;;;11.20;99.90;;;;;;7317407;32;20112;-56
2023/04/15 12:27:52;;;;;;;4.72;3.35;;;11.10;99.90;;;;;;7302370;32;20132;-56
2023/04/15 12:32:33;;;;;;;5.37;3.78;;;11.10;99.90;;;;;;7308707;32;20238;-56
2023/04/15 12:36:36;;;;;;;5.00;3.10;;;11.00;99.90;;;;;;7263169;32;20211;-55
2023/04/15 12:40:37;;;;;;;6.90;3.28;;;10.90;99.90;;;;;;7308136;32;20355;-55
2023/04/15 12:44:39;;;;;;;6.40;2.92;;;10.90;99.90;;;;;;7309798;32;20866;-57
2023/04/15 12:48:41;;;;;;;4.20;2.83;;;10.80;99.90;;;;;;7306560;32;20229;-56
2023/04/15 12:52:43;;;;;;;3.67;2.55;;;10.70;99.90;;;;;;7307315;32;20252;-56
2023/04/15 12:56:46;;;;;;;3.62;2.22;;;10.80;99.90;;;;;;7297091;32;20137;-56
2023/04/15 13:00:48;;;;;;;4.35;2.58;;;10.80;99.90;;;;;;7295230;32;20123;-56
2023/04/15 13:04:51;;;;;;;2.65;2.03;;;10.80;99.90;;;;;;7297334;32;20675;-55
2023/04/15 13:08:54;;;;;;;2.40;1.95;;;11.00;99.90;;;;;;7293037;32;20238;-56
2023/04/15 13:12:59;;;;;;;2.90;2.17;;;11.00;99.90;;;;;;7303268;32;20831;-57
2023/04/15 13:17:03;;;;;;;3.35;2.10;;;11.10;99.90;;;;;;7327386;32;20288;-55
2023/04/15 13:21:06;;;;;;;3.92;1.85;;;11.10;99.90;;;;;;7315559;32;20120;-56
2023/04/15 13:25:08;;;;;;;3.72;2.60;;;11.10;99.90;;;;;;7318434;32;20306;-54
2023/04/15 13:29:11;;;;;;;2.45;2.25;;;11.40;99.90;;;;;;7329449;32;20211;-56
2023/04/15 13:33:12;;;;;;;3.87;2.50;;;11.30;99.90;;;;;;7314501;32;20198;-56
2023/04/15 13:37:14;;;;;;;2.87;2.33;;;11.30;99.90;;;;;;7311638;32;20116;-56
2023/04/15 13:41:16;;;;;;;4.20;2.37;;;11.10;99.90;;;;;;7319833;32;20127;-56
2023/04/15 13:45:18;;;;;;;5.43;2.28;;;11.10;99.90;;;;;;7321307;32;20103;-56
2023/04/15 13:49:19;;;;;;;3.40;2.33;;;11.00;99.90;;;;;;7308900;32;20348;-56
2023/04/15 13:53:21;;;;;;;4.55;2.92;;;11.10;99.90;;;;;;7336389;32;20328;-56
2023/04/15 13:57:40;;;;;;;3.37;2.35;;;10.80;99.90;;;;;;7325488;32;20842;-56
2023/04/15 14:01:42;;;;;;;6.07;2.67;;;10.90;99.90;;;;;;7324689;32;20099;-56
2023/04/15 14:05:44;;;;;;;3.70;2.37;;;11.10;99.90;;;;;;7324336;32;20136;-55
2023/04/15 14:09:47;;;;;;;4.12;1.92;;;11.20;99.90;;;;;;7306655;32;20153;-55
2023/04/15 14:13:48;;;;;;;4.87;2.30;;;11.20;99.90;;;;;;7304563;32;20142;-55
2023/04/15 14:17:50;;;;;;;2.20;1.73;;;11.20;99.90;;;;;;7305199;32;20849;-57
2023/04/15 14:21:52;;;;;;;3.08;2.08;;;11.00;99.90;;;;;;7312563;32;20457;-56
2023/04/15 14:25:53;;;;;;;3.08;2.00;;;10.90;99.90;;;;;;7294471;32;20613;-56
2023/04/15 14:29:56;;;;;;;4.37;2.10;;;10.80;99.90;;;;;;7299480;32;20239;-56
2023/04/15 14:33:58;;;;;;;4.60;2.42;;;10.80;99.90;;;;;;7311941;32;20176;-56
2023/04/15 14:38:00;;;;;;;4.43;2.17;;;10.80;99.90;;;;;;7309437;32;20681;-57
2023/04/15 14:42:01;;;;;;;5.12;2.30;;;10.80;99.90;;;;;;7301612;32;20249;-57
2023/04/15 14:46:03;;;;;;;5.47;2.05;;;10.80;99.90;;;;;;7308108;32;20958;-56
2023/04/15 14:50:05;;;;;;;4.15;2.10;;;10.60;99.90;;;;;;7304433;32;20126;-56
2023/04/15 14:54:07;;;;;;;5.68;2.20;;;10.50;99.90;;;;;;7296866;32;20742;-56
2023/04/15 14:58:09;;;;;;;3.70;2.00;;;10.50;99.90;;;;;;7306325;32;20203;-56
2023/04/15 15:02:10;;;;;;;3.25;1.90;;;10.60;99.90;;;;;;7301359;32;20131;-56
2023/04/15 15:06:20;;;;;;;4.12;2.30;;;10.70;99.90;;;;;;7300615;32;20230;-57
2023/04/15 15:10:22;;;;;;;4.20;2.10;;;10.90;99.90;;;;;;7295437;32;20134;-56
2023/04/15 15:14:43;;;;;;;2.72;1.80;;;10.60;99.90;;;;;;7302105;32;20211;-55
2023/04/15 15:18:45;;;;;;;2.35;1.60;;;10.60;99.90;;;;;;7296501;32;20138;-55
2023/04/15 15:22:47;;;;;;;2.08;1.67;;;10.40;99.90;;;;;;7304617;32;20116;-55
2023/04/15 15:26:49;;;;;;;2.50;1.83;;;10.30;99.90;;;;;;7306355;32;20108;-55
2023/04/15 15:30:50;;;;;;;2.87;2.10;;;10.10;99.90;;;;;;7314141;32;20135;-55
2023/04/15 15:34:52;;;;;;;5.05;1.85;;;10.10;99.90;;;;;;7302665;32;20253;-55
2023/04/15 15:38:54;;;;;;;2.67;1.95;;;9.90;99.90;;;;;;7302144;32;20213;-57
2023/04/15 15:42:55;;;;;;;5.30;2.28;;;10.00;99.90;;;;;;7303576;32;20135;-55
2023/04/15 15:46:57;;;;;;;3.15;1.55;;;10.00;99.90;;;;;;7306078;32;20132;-56
2023/04/15 15:51:00;;;;;;;3.28;2.30;;;10.20;99.90;;;;;;7301250;32;20190;-55
2023/04/15 15:55:01;;;;;;;4.25;2.42;;;10.00;99.90;;;;;;7300642;32;20245;-56
2023/04/15 15:59:03;;;;;;;3.95;2.47;;;10.10;99.90;;;;;;7303459;32;20691;-55
2023/04/15 16:03:05;;;;;;;4.93;2.40;;;10.10;99.90;;;;;;7300607;32;20265;-55
2023/04/15 16:07:10;;;;;;;5.12;2.30;;;10.20;99.90;;;;;;7301378;32;20720;-55
2023/04/15 16:11:11;;;;;;;3.30;2.20;;;10.20;99.90;;;;;;7305252;32;20138;-55
2023/04/15 16:15:13;;;;;;;3.83;2.00;;;10.30;99.90;;;;;;7299928;32;20107;-55
2023/04/15 16:19:15;;;;;;;4.40;2.67;;;10.20;99.90;;;;;;7298190;32;20144;-55
2023/04/15 16:23:18;;;;;;;4.45;2.25;;;10.00;99.90;;;;;;7306527;32;20206;-55
2023/04/15 16:27:20;;;;;;;4.60;2.50;;;10.00;99.90;;;;;;7298064;32;20478;-55
2023/04/15 16:31:21;;;;;;;3.87;2.37;;;9.90;99.90;;;;;;7306892;32;20182;-55
2023/04/15 16:35:23;;;;;;;4.22;2.20;;;9.80;99.90;;;;;;7301225;32;20777;-55
2023/04/15 16:39:25;;;;;;;4.55;2.35;;;9.70;99.90;;;;;;7301189;32;20140;-55
2023/04/15 16:43:27;;;;;;;5.85;2.30;;;9.60;99.90;;;;;;7300501;32;20341;-55
2023/04/15 16:47:29;;;;;;;2.87;2.20;;;9.60;99.90;;;;;;7300836;32;20134;-56
2023/04/15 16:51:31;;;;;;;5.20;2.67;;;9.40;99.90;;;;;;7301087;32;20403;-55
2023/04/15 16:55:33;;;;;;;5.25;2.55;;;9.50;99.90;;;;;;7303818;32;20127;-55
2023/04/15 16:59:35;;;;;;;5.15;2.50;;;9.50;99.90;;;;;;7302889;32;20130;-55
2023/04/15 17:03:37;;;;;;;3.83;2.42;;;9.40;99.90;;;;;;7300096;32;20134;-55
2023/04/15 17:07:39;;;;;;;6.43;3.05;;;9.30;99.90;;;;;;7297770;32;20127;-56
2023/04/15 17:11:43;;;;;;;5.07;3.00;;;9.30;99.90;;;;;;7301023;32;20557;-56
2023/04/15 17:15:44;;;;;;;7.43;3.05;;;9.40;99.90;;;;;;7294519;32;20167;-55
2023/04/15 17:19:46;;;;;;;6.93;3.62;;;9.40;99.90;;;;;;7297601;32;20201;-55
2023/04/15 17:23:49;;;;;;;7.45;3.40;;;9.30;99.90;;;;;;7293971;32;20143;-55
2023/04/15 17:27:51;;;;;;;5.85;4.75;;;9.30;99.90;;;;;;7296459;32;20156;-55
2023/04/15 17:31:54;;;;;;;9.10;4.53;;;9.10;99.90;;;;;;7298586;32;20118;-55
2023/04/15 17:35:56;;;;;;;7.07;4.10;;;9.20;99.90;;;;;;7294578;32;20257;-55
2023/04/15 17:39:58;;;;;;;4.85;3.70;;;9.10;99.90;;;;;;7287723;32;20112;-55
2023/04/15 17:44:00;;;;;;;9.73;5.07;;;9.10;99.90;;;;;;7296153;32;20108;-55
2023/04/15 17:48:02;;;;;;;7.82;5.55;;;9.00;99.90;;;;;;7297018;32;20227;-55
2023/04/15 17:52:04;;;;;;;11.48;6.65;;;8.90;99.90;;;;;;7290332;32;20271;-55
2023/04/15 17:56:06;;;;;;;11.65;5.68;;;8.80;99.90;;;;;;7300186;32;20262;-55
2023/04/15 18:00:09;;;;;;;14.25;6.12;;;8.80;99.90;;;;;;7301414;32;20502;-55
2023/04/15 18:04:11;;;;;;;8.23;6.15;;;8.70;99.90;;;;;;7302683;32;20274;-55
2023/04/15 18:08:13;;;;;;;10.13;5.10;;;8.70;99.90;;;;;;7299102;32;20766;-55
2023/04/15 18:12:15;;;;;;;8.30;5.00;;;8.80;99.90;;;;;;7304277;32;20199;-56
2023/04/15 18:16:18;;;;;;;8.75;4.90;;;8.60;99.90;;;;;;7296689;32;20304;-56
2023/04/15 18:20:20;;;;;;;11.35;4.40;;;8.60;99.90;;;;;;7298112;32;20301;-57
2023/04/15 18:24:21;;;;;;;10.80;5.43;;;8.50;99.90;;;;;;7298676;32;20139;-57
2023/04/15 18:28:23;;;;;;;12.90;5.30;;;8.40;99.90;;;;;;7297801;32;20120;-56
2023/04/15 18:32:27;;;;;;;13.62;5.55;;;8.30;99.90;;;;;;7296469;32;20150;-56
2023/04/15 18:36:32;;;;;;;11.48;5.43;;;8.30;99.90;;;;;;7293759;32;20352;-58
2023/04/15 18:40:35;;;;;;;13.07;5.40;;;8.30;99.90;;;;;;7295713;32;20199;-67
2023/04/15 18:44:36;;;;;;;13.32;5.20;;;8.20;99.90;;;;;;7301314;32;20167;-55
2023/04/15 18:48:38;;;;;;;6.25;4.10;;;8.30;99.90;;;;;;7301395;32;20322;-55
2023/04/15 18:52:40;;;;;;;9.68;4.72;;;8.20;99.90;;;;;;7291560;32;20253;-55
2023/04/15 18:56:41;;;;;;;10.07;4.65;;;8.20;99.90;;;;;;7298638;32;20115;-55
2023/04/15 19:00:43;;;;;;;9.50;5.22;;;8.30;99.90;;;;;;7293578;32;20616;-55
2023/04/15 19:04:45;;;;;;;12.55;5.93;;;8.20;99.90;;;;;;7298313;32;20135;-55
2023/04/15 19:08:46;;;;;;;12.23;5.50;;;8.20;99.90;;;;;;7298333;32;20221;-56
2023/04/15 19:12:48;;;;;;;10.88;5.95;;;8.20;99.90;;;;;;7296292;32;20882;-55
2023/04/15 19:16:50;;;;;;;8.63;5.45;;;8.10;99.90;;;;;;7297497;32;20229;-54
2023/04/15 19:20:54;;;;;;;14.65;5.37;;;8.00;99.90;;;;;;7293993;32;20569;-56
2023/04/15 19:24:56;;;;;;;12.68;5.10;;;7.90;99.90;;;;;;7299764;32;20100;-55
2023/04/15 19:28:58;;;;;;;11.38;4.53;;;8.00;99.90;;;;;;7294744;32;20183;-55
2023/04/15 19:32:59;;;;;;;12.77;4.12;;;8.00;99.90;;;;;;7300116;32;20349;-56
2023/04/15 19:37:01;;;;;;;11.60;4.00;;;8.00;99.90;;;;;;7298449;32;20185;-55
2023/04/15 19:41:03;;;;;;;10.73;5.28;;;8.00;99.90;;;;;;7296519;32;20184;-55
2023/04/15 19:45:05;;;;;;;12.95;5.53;;;7.90;99.90;;;;;;7294388;32;20505;-55
2023/04/15 19:49:07;;;;;;;11.98;5.12;;;7.90;99.90;;;;;;7301391;32;20100;-55
2023/04/15 19:53:09;;;;;;;9.63;4.50;;;8.00;99.90;;;;;;7302290;32;20247;-55
2023/04/15 19:57:10;;;;;;;10.85;4.93;;;8.00;99.90;;;;;;7300002;32;20261;-55
2023/04/15 20:01:12;;;;;;;12.00;5.55;;;8.00;99.90;;;;;;7298283;32;20139;-55
2023/04/15 20:05:14;;;;;;;13.02;6.00;;;7.90;99.90;;;;;;7302829;32;20206;-55
2023/04/15 20:09:16;;;;;;;12.63;5.87;;;7.70;99.90;;;;;;7304201;32;20149;-55
2023/04/15 20:13:17;;;;;;;13.07;5.45;;;7.80;99.90;;;;;;7299869;32;20112;-55
2023/04/15 20:17:19;;;;;;;10.32;5.20;;;7.80;99.90;;;;;;7300088;32;20123;-55
2023/04/15 20:21:21;;;;;;;12.55;5.35;;;7.70;99.90;;;;;;7299139;32;20198;-55
2023/04/15 20:25:22;;;;;;;11.50;6.30;;;7.70;99.90;;;;;;7302032;32;20906;-56
2023/04/15 20:29:24;;;;;;;14.65;6.07;;;7.60;99.90;;;;;;7306013;32;20234;-54
2023/04/15 20:33:26;;;;;;;12.52;5.53;;;7.70;99.90;;;;;;7303180;32;20211;-55
2023/04/15 20:37:29;;;;;;;11.80;5.45;;;7.60;99.90;;;;;;7304487;32;20139;-55
2023/04/15 20:41:31;;;;;;;9.57;4.50;;;7.80;99.90;;;;;;7305277;32;20115;-55
2023/04/15 20:45:33;;;;;;;8.15;4.37;;;7.70;99.90;;;;;;7300669;32;20791;-55
2023/04/15 20:49:36;;;;;;;8.43;4.55;;;7.80;99.90;;;;;;7306560;32;20254;-55
2023/04/15 20:53:40;;;;;;;8.35;5.18;;;7.80;99.90;;;;;;7309055;32;20135;-54
2023/04/15 20:57:42;;;;;;;14.02;8.30;;;7.70;99.90;;;;;;7304661;32;20111;-55
2023/04/15 21:01:44;;;;;;;13.20;8.82;;;7.70;99.90;;;;;;7301189;32;20258;-55
2023/04/15 21:05:46;;;;;;;13.00;8.85;;;7.70;99.90;;;;;;7305027;32;20137;-55